createdAt,value
2022-09-12T00:05:28.190Z,978.58
2022-09-12T00:12:13.543Z,978.57
2022-09-12T00:18:39.787Z,978.52
2022-09-12T00:25:12.806Z,978.53
2022-09-12T00:32:08.853Z,978.5
2022-09-12T00:38:55.632Z,978.48
2022-09-12T00:45:28.546Z,978.44
2022-09-12T00:52:29.235Z,978.41
2022-09-12T00:59:22.638Z,978.35
2022-09-12T01:06:07.983Z,978.3
2022-09-12T01:12:51.205Z,978.28
2022-09-12T01:19:50.693Z,978.22
2022-09-12T01:26:52.936Z,978.17
2022-09-12T01:34:02.231Z,978.1
2022-09-12T01:41:14.780Z,978.04
2022-09-12T01:48:29.638Z,978.01
2022-09-12T01:55:39.371Z,977.97
2022-09-12T02:03:00.912Z,977.95
2022-09-12T02:10:13.458Z,977.86
2022-09-12T02:17:17.223Z,977.81
2022-09-12T02:24:09.133Z,977.78
2022-09-12T02:31:17.430Z,977.87
2022-09-12T02:38:30.257Z,977.84
2022-09-12T02:45:08.901Z,977.89
2022-09-12T02:52:06.647Z,977.82
2022-09-12T02:58:58.586Z,977.8
2022-09-12T03:06:07.639Z,977.73
2022-09-12T03:13:15.320Z,977.67
2022-09-12T03:20:17.711Z,977.71
2022-09-12T03:27:40.448Z,977.66
2022-09-12T03:34:29.715Z,977.67
2022-09-12T03:41:06.307Z,977.71
2022-09-12T03:47:39.452Z,977.69
2022-09-12T03:54:17.586Z,977.68
2022-09-12T04:00:50.732Z,977.62
2022-09-12T04:07:23.440Z,977.59
2022-09-12T04:14:05.740Z,977.5
2022-09-12T04:20:33.958Z,977.44
2022-09-12T04:27:09.034Z,977.44
2022-09-12T04:33:44.387Z,977.43
2022-09-12T04:40:28.531Z,977.43
2022-09-12T04:47:00.974Z,977.45
2022-09-12T04:53:28.885Z,977.44
2022-09-12T05:00:07.663Z,977.35
2022-09-12T05:06:47.090Z,977.32
2022-09-12T05:13:22.650Z,977.35
2022-09-12T05:19:58.710Z,977.39
2022-09-12T05:26:45.811Z,977.41
2022-09-12T05:33:30.828Z,977.37
2022-09-12T05:40:03.201Z,977.4
2022-09-12T05:46:45.639Z,977.45
2022-09-12T05:53:19.653Z,977.39
2022-09-12T06:00:07.566Z,977.29
2022-09-12T06:06:52.489Z,977.44
2022-09-12T06:13:22.675Z,977.44
2022-09-12T06:20:03.935Z,977.44
2022-09-12T06:26:34.785Z,977.52
2022-09-12T06:33:18.380Z,977.5
2022-09-12T06:40:03.047Z,977.47
2022-09-12T06:46:31.571Z,977.44
2022-09-12T06:53:01.819Z,977.46
2022-09-12T06:59:29.715Z,977.46
2022-09-12T07:06:13.666Z,977.48
2022-09-12T07:12:41.483Z,977.53
2022-09-12T07:19:17.292Z,977.5
2022-09-12T07:25:54.925Z,977.5
2022-09-12T07:32:34.722Z,977.51
2022-09-12T07:39:04.722Z,977.51
2022-09-12T07:45:38.455Z,977.5
2022-09-12T07:52:16.185Z,977.49
2022-09-12T07:58:48.489Z,977.49
2022-09-12T08:05:19.169Z,977.42
2022-09-12T08:12:00.550Z,977.44
2022-09-12T08:18:31.519Z,977.52
2022-09-12T08:25:03.140Z,977.56
2022-09-12T08:31:58.019Z,977.5
2022-09-12T08:38:29.686Z,977.46
2022-09-12T08:45:19.636Z,977.43
2022-09-12T08:52:06.484Z,977.44
2022-09-12T08:59:14.773Z,977.46
2022-09-12T09:06:29.399Z,977.43
2022-09-12T09:13:44.291Z,977.35
2022-09-12T09:20:35.007Z,977.26
2022-09-12T09:27:43.645Z,977.15
2022-09-12T09:35:02.830Z,977.16
2022-09-12T09:42:12.218Z,977.17
2022-09-12T09:49:24.646Z,977.17
2022-09-12T09:56:38.483Z,977.14
2022-09-12T10:03:55.164Z,977.02
2022-09-12T10:11:12.859Z,976.97
2022-09-12T10:18:24.495Z,976.94
2022-09-12T10:25:24.700Z,976.8
2022-09-12T10:32:19.239Z,976.7
2022-09-12T10:39:24.638Z,976.66
2022-09-12T10:46:13.657Z,976.58
2022-09-12T10:52:58.488Z,976.54
2022-09-12T10:59:53.051Z,976.61
2022-09-12T11:07:00.081Z,976.57
2022-09-12T11:13:54.903Z,976.56
2022-09-12T11:21:11.757Z,976.52
2022-09-12T11:28:15.786Z,976.49
2022-09-12T11:35:22.816Z,976.43
2022-09-12T11:42:27.546Z,976.5
2022-09-12T11:49:40.202Z,976.38
2022-09-12T11:56:49.181Z,976.32
2022-09-12T12:04:00.858Z,976.25
2022-09-12T12:11:10.049Z,976.24
2022-09-12T12:17:59.206Z,976.19
2022-09-12T12:25:02.537Z,976.03
2022-09-12T12:31:56.628Z,976.01
2022-09-12T12:38:43.742Z,975.92
2022-09-12T12:45:27.681Z,975.92
2022-09-12T12:52:19.674Z,975.9
2022-09-12T12:59:13.750Z,975.81
2022-09-12T13:06:06.128Z,975.8
2022-09-12T13:13:03.655Z,975.72
2022-09-12T13:20:29.694Z,975.69
2022-09-12T13:27:27.634Z,975.56
2022-09-12T13:34:18.567Z,975.53
2022-09-12T13:41:06.992Z,975.39
2022-09-12T13:48:05.056Z,975.32
2022-09-12T13:55:07.835Z,975.25
2022-09-12T14:01:54.065Z,975.2
2022-09-12T14:08:45.282Z,975.19
2022-09-12T14:15:35.271Z,975.1
2022-09-12T14:22:22.271Z,975.07
2022-09-12T14:28:57.098Z,975.02
2022-09-12T14:35:44.681Z,974.95
2022-09-12T14:42:47.027Z,974.93
2022-09-12T14:49:36.979Z,974.9
2022-09-12T14:56:30.310Z,974.88
2022-09-12T15:03:32.132Z,974.81
2022-09-12T15:10:33.984Z,974.75
2022-09-12T15:17:16.393Z,974.75
2022-09-12T15:23:56.817Z,974.74
2022-09-12T15:30:34.092Z,974.66
2022-09-12T15:37:12.805Z,974.58
2022-09-12T15:43:47.222Z,974.55
2022-09-12T15:50:26.129Z,974.57
2022-09-12T15:57:15.696Z,974.56
2022-09-12T16:03:56.983Z,974.57
2022-09-12T16:10:37.340Z,974.59
2022-09-12T16:17:17.621Z,974.58
2022-09-12T16:23:40.978Z,974.52
2022-09-12T16:30:15.625Z,974.32
2022-09-12T16:36:50.680Z,974.26
2022-09-12T16:43:19.885Z,974.22
2022-09-12T16:49:50.110Z,974.21
2022-09-12T16:56:24.723Z,974.22
2022-09-12T17:02:51.256Z,974.22
2022-09-12T17:09:34.681Z,974.21
2022-09-12T17:16:09.699Z,974.23
2022-09-12T17:22:45.027Z,974.23
2022-09-12T17:29:12.696Z,974.26
2022-09-12T17:35:42.224Z,974.15
2022-09-12T17:42:22.023Z,974.21
2022-09-12T17:48:47.835Z,974.25
2022-09-12T17:55:29.825Z,974.26
2022-09-12T18:01:56.621Z,974.34
2022-09-12T18:08:33.841Z,974.34
2022-09-12T18:15:05.690Z,974.41
2022-09-12T18:21:39.228Z,974.45
2022-09-12T18:28:09.674Z,974.39
2022-09-12T18:34:39.042Z,974.4
2022-09-12T18:41:14.752Z,974.46
2022-09-12T18:47:42.726Z,974.45
2022-09-12T18:54:12.985Z,974.47
2022-09-12T19:00:45.115Z,974.48
2022-09-12T19:07:23.909Z,974.37
2022-09-12T19:13:43.343Z,974.44
2022-09-12T19:20:21.163Z,974.54
2022-09-12T19:26:47.858Z,974.42
2022-09-12T19:33:21.756Z,974.3
2022-09-12T19:39:51.390Z,974.36
2022-09-12T19:46:39.237Z,974.37
2022-09-12T19:53:11.817Z,974.28
2022-09-12T19:59:41.161Z,974.18
2022-09-12T20:06:13.055Z,974.05
2022-09-12T20:12:49.066Z,973.93
2022-09-12T20:19:23.247Z,973.91
2022-09-12T20:25:52.825Z,973.78
2022-09-12T20:32:44.382Z,973.88
2022-09-12T20:39:16.104Z,974.06
2022-09-12T20:45:48.167Z,974.06
2022-09-12T20:52:21.190Z,974.09
2022-09-12T20:58:51.619Z,974.06
2022-09-12T21:05:19.121Z,973.96
2022-09-12T21:11:47.121Z,973.99
2022-09-12T21:18:23.009Z,974.11
2022-09-12T21:25:01.878Z,974.23
2022-09-12T21:31:33.063Z,974.1
2022-09-12T21:37:59.623Z,974.15
2022-09-12T21:44:32.006Z,974.11
2022-09-12T21:51:05.701Z,974.07
2022-09-12T21:57:35.963Z,973.94
2022-09-12T22:04:07.158Z,973.81
2022-09-12T22:10:30.820Z,973.86
2022-09-12T22:16:50.991Z,973.96
2022-09-12T22:23:25.407Z,973.92
2022-09-12T22:30:09.871Z,973.84
2022-09-12T22:36:39.070Z,973.83
2022-09-12T22:43:12.914Z,973.82
2022-09-12T22:49:46.379Z,973.76
2022-09-12T22:56:10.954Z,973.76
2022-09-12T23:02:43.540Z,973.6
2022-09-12T23:09:11.186Z,973.63
2022-09-12T23:15:45.486Z,973.6
2022-09-12T23:22:17.783Z,973.59
2022-09-12T23:28:53.369Z,973.56
2022-09-12T23:35:22.326Z,973.45
2022-09-12T23:41:59.601Z,973.34
2022-09-12T23:48:23.744Z,973.32
2022-09-12T23:54:49.888Z,973.33
